Terminal Aerodrome Forecast
Issued by NWS

Home | Current Version | Previous Version | Text Only | Print | Product List | Glossary On
Versions: 1 2 3 4 5 6 7 8 9 10 11 12 13 14 15
000
FTUS43 KEAX 311100
TAFSTJ
TAF
KSTJ 311126Z 3112/0112 16007KT 6SM -RA BR OVC035
     FM312000 15010KT 4SM -RA BR BKN008 OVC012
     FM010800 VRB04KT 3SM -SN BR OVC006=

USA.gov is the U.S. government's official web portal to all federal, state and local government web resources and services.